GOBMD EGHR-EGHR
Flight info
| Callsign | GOBMD |
|---|---|
| Flight time | 0h 24m |
| Altitude | 2500 |
| Route | / |
| Aircraft | DA40/L-V/N |
Departure
| Time | 2026-04-26 08:33 |
|---|---|
| Airport | Goodwood Aerodrome (EGHR) |
Arrival
| Time | 2026-04-26 08:58 |
|---|---|
| Airport | Goodwood Aerodrome (EGHR) |
| Time | Latitude | Longitude | Altitude | Speed | Heading |
|---|---|---|---|---|---|
| 2026-04-26 08:26 | 50.85934 | -0.75803 | 104 ft | 0 kts | 343° |
| 2026-04-26 08:28 | 50.85946 | -0.75831 | 104 ft | 4 kts | 290° |
| 2026-04-26 08:28 | 50.85961 | -0.75867 | 103 ft | 10 kts | 306° |
| 2026-04-26 08:28 | 50.86016 | -0.75988 | 103 ft | 11 kts | 307° |
| 2026-04-26 08:29 | 50.86058 | -0.76072 | 105 ft | 14 kts | 320° |
| 2026-04-26 08:29 | 50.86138 | -0.76101 | 104 ft | 8 kts | 1° |
| 2026-04-26 08:29 | 50.86179 | -0.76110 | 104 ft | 6 kts | 336° |
| 2026-04-26 08:29 | 50.86209 | -0.76132 | 104 ft | 4 kts | 318° |
| 2026-04-26 08:30 | 50.86233 | -0.76164 | 104 ft | 5 kts | 323° |
| 2026-04-26 08:30 | 50.86254 | -0.76192 | 105 ft | 3 kts | 317° |
| 2026-04-26 08:30 | 50.86258 | -0.76199 | 105 ft | 0 kts | 316° |
| 2026-04-26 08:30 | 50.86261 | -0.76202 | 105 ft | 4 kts | 316° |
| 2026-04-26 08:31 | 50.86275 | -0.76235 | 105 ft | 3 kts | 302° |
| 2026-04-26 08:31 | 50.86279 | -0.76246 | 105 ft | 2 kts | 307° |
| 2026-04-26 08:31 | 50.86289 | -0.76267 | 105 ft | 0 kts | 298° |
| 2026-04-26 08:32 | 50.86291 | -0.76278 | 105 ft | 6 kts | 273° |
| 2026-04-26 08:32 | 50.86276 | -0.76340 | 106 ft | 10 kts | 240° |
| 2026-04-26 08:32 | 50.86234 | -0.76341 | 106 ft | 10 kts | 139° |
| 2026-04-26 08:32 | 50.86058 | -0.76101 | 105 ft | 56 kts | 139° |
| 2026-04-26 08:33 | 50.85687 | -0.75620 | 214 ft | 74 kts | 134° |
| 2026-04-26 08:33 | 50.85300 | -0.75092 | 477 ft | 71 kts | 130° |
| 2026-04-26 08:33 | 50.84921 | -0.74567 | 684 ft | 74 kts | 131° |
| 2026-04-26 08:33 | 50.84576 | -0.74051 | 821 ft | 81 kts | 130° |
| 2026-04-26 08:34 | 50.84216 | -0.73278 | 915 ft | 90 kts | 98° |
| 2026-04-26 08:34 | 50.84454 | -0.72394 | 1117 ft | 93 kts | 52° |
| 2026-04-26 08:34 | 50.84953 | -0.71633 | 1185 ft | 106 kts | 50° |
| 2026-04-26 08:34 | 50.85505 | -0.70859 | 1333 ft | 104 kts | 46° |
| 2026-04-26 08:35 | 50.86178 | -0.70313 | 1369 ft | 116 kts | 14° |
| 2026-04-26 08:35 | 50.86960 | -0.70702 | 1423 ft | 128 kts | 321° |
| 2026-04-26 08:35 | 50.87334 | -0.72057 | 1314 ft | 139 kts | 288° |
| 2026-04-26 08:35 | 50.87707 | -0.73408 | 1359 ft | 128 kts | 306° |
| 2026-04-26 08:36 | 50.88297 | -0.74419 | 1287 ft | 124 kts | 320° |
| 2026-04-26 08:36 | 50.88903 | -0.75278 | 1150 ft | 106 kts | 320° |
| 2026-04-26 08:36 | 50.89239 | -0.76156 | 1040 ft | 90 kts | 255° |
| 2026-04-26 08:36 | 50.88998 | -0.77093 | 956 ft | 98 kts | 231° |
| 2026-04-26 08:37 | 50.88621 | -0.77961 | 976 ft | 87 kts | 225° |
| 2026-04-26 08:37 | 50.88344 | -0.78349 | 949 ft | 75 kts | 190° |
| 2026-04-26 08:37 | 50.87838 | -0.78372 | 793 ft | 71 kts | 151° |
| 2026-04-26 08:37 | 50.87409 | -0.78012 | 622 ft | 70 kts | 115° |
| 2026-04-26 08:38 | 50.87065 | -0.77509 | 430 ft | 67 kts | 129° |
| 2026-04-26 08:38 | 50.86604 | -0.76877 | 277 ft | 68 kts | 128° |
| 2026-04-26 08:38 | 50.86369 | -0.76542 | 162 ft | 66 kts | 131° |
| 2026-04-26 08:38 | 50.86050 | -0.76078 | 109 ft | 66 kts | 134° |
| 2026-04-26 08:39 | 50.85685 | -0.75576 | 301 ft | 71 kts | 132° |
| 2026-04-26 08:39 | 50.85304 | -0.75032 | 533 ft | 75 kts | 128° |
| 2026-04-26 08:39 | 50.84861 | -0.74423 | 696 ft | 86 kts | 136° |
| 2026-04-26 08:39 | 50.84361 | -0.73774 | 801 ft | 95 kts | 127° |
| 2026-04-26 08:40 | 50.84239 | -0.72854 | 1020 ft | 90 kts | 64° |
| 2026-04-26 08:40 | 50.84658 | -0.72086 | 1198 ft | 97 kts | 51° |
| 2026-04-26 08:40 | 50.85171 | -0.71291 | 1232 ft | 112 kts | 51° |
| 2026-04-26 08:40 | 50.85774 | -0.70389 | 1246 ft | 124 kts | 39° |
| 2026-04-26 08:41 | 50.86648 | -0.70215 | 1238 ft | 141 kts | 345° |
| 2026-04-26 08:41 | 50.87419 | -0.71176 | 1302 ft | 142 kts | 322° |
| 2026-04-26 08:41 | 50.88194 | -0.72234 | 1160 ft | 143 kts | 322° |
| 2026-04-26 08:41 | 50.88901 | -0.73238 | 1127 ft | 131 kts | 320° |
| 2026-04-26 08:42 | 50.89506 | -0.74153 | 1066 ft | 105 kts | 321° |
| 2026-04-26 08:42 | 50.89883 | -0.74990 | 963 ft | 84 kts | 290° |
| 2026-04-26 08:42 | 50.89773 | -0.75803 | 901 ft | 80 kts | 216° |
| 2026-04-26 08:42 | 50.89384 | -0.76435 | 927 ft | 85 kts | 221° |
| 2026-04-26 08:43 | 50.88968 | -0.77140 | 971 ft | 89 kts | 217° |
| 2026-04-26 08:43 | 50.88533 | -0.77859 | 1015 ft | 89 kts | 222° |
| 2026-04-26 08:43 | 50.88116 | -0.78535 | 1107 ft | 83 kts | 201° |
| 2026-04-26 08:43 | 50.87657 | -0.78468 | 922 ft | 68 kts | 117° |
| 2026-04-26 08:44 | 50.87363 | -0.77926 | 667 ft | 65 kts | 110° |
| 2026-04-26 08:44 | 50.87035 | -0.77444 | 410 ft | 66 kts | 135° |
| 2026-04-26 08:44 | 50.86668 | -0.76949 | 300 ft | 70 kts | 133° |
| 2026-04-26 08:44 | 50.86312 | -0.76457 | 138 ft | 68 kts | 133° |
| 2026-04-26 08:45 | 50.85983 | -0.76006 | 149 ft | 62 kts | 130° |
| 2026-04-26 08:45 | 50.85629 | -0.75588 | 306 ft | 62 kts | 134° |
| 2026-04-26 08:45 | 50.85293 | -0.75198 | 424 ft | 62 kts | 133° |
| 2026-04-26 08:45 | 50.84959 | -0.74774 | 573 ft | 62 kts | 129° |
| 2026-04-26 08:46 | 50.84637 | -0.74235 | 659 ft | 73 kts | 120° |
| 2026-04-26 08:46 | 50.84342 | -0.73540 | 782 ft | 84 kts | 116° |
| 2026-04-26 08:46 | 50.84202 | -0.72672 | 950 ft | 85 kts | 70° |
| 2026-04-26 08:46 | 50.84650 | -0.71970 | 1106 ft | 98 kts | 44° |
| 2026-04-26 08:47 | 50.85243 | -0.71325 | 1267 ft | 106 kts | 39° |
| 2026-04-26 08:47 | 50.85900 | -0.70732 | 1376 ft | 110 kts | 24° |
| 2026-04-26 08:47 | 50.86651 | -0.70983 | 1454 ft | 121 kts | 320° |
| 2026-04-26 08:47 | 50.87171 | -0.72050 | 1463 ft | 125 kts | 306° |
| 2026-04-26 08:48 | 50.87659 | -0.73185 | 1485 ft | 127 kts | 305° |
| 2026-04-26 08:48 | 50.88148 | -0.74360 | 1339 ft | 129 kts | 305° |
| 2026-04-26 08:48 | 50.88723 | -0.75369 | 1305 ft | 116 kts | 326° |
| 2026-04-26 08:48 | 50.89194 | -0.76301 | 1244 ft | 107 kts | 280° |
| 2026-04-26 08:49 | 50.89082 | -0.77380 | 1199 ft | 93 kts | 234° |
| 2026-04-26 08:49 | 50.88743 | -0.78144 | 1095 ft | 80 kts | 220° |
| 2026-04-26 08:49 | 50.88291 | -0.78449 | 954 ft | 71 kts | 172° |
| 2026-04-26 08:49 | 50.87788 | -0.78293 | 827 ft | 75 kts | 149° |
| 2026-04-26 08:50 | 50.87357 | -0.77866 | 694 ft | 73 kts | 137° |
| 2026-04-26 08:50 | 50.86971 | -0.77393 | 485 ft | 68 kts | 131° |
| 2026-04-26 08:50 | 50.86611 | -0.76866 | 303 ft | 71 kts | 131° |
| 2026-04-26 08:50 | 50.86247 | -0.76365 | 112 ft | 65 kts | 132° |
| 2026-04-26 08:51 | 50.85548 | -0.75427 | 318 ft | 73 kts | 131° |
| 2026-04-26 08:51 | 50.85143 | -0.74906 | 542 ft | 76 kts | 133° |
| 2026-04-26 08:51 | 50.84716 | -0.74398 | 744 ft | 79 kts | 135° |
| 2026-04-26 08:52 | 50.84235 | -0.73785 | 811 ft | 96 kts | 135° |
| 2026-04-26 08:52 | 50.83766 | -0.73049 | 987 ft | 92 kts | 110° |
| 2026-04-26 08:52 | 50.83860 | -0.72070 | 1112 ft | 98 kts | 58° |
| 2026-04-26 08:52 | 50.84372 | -0.71238 | 1147 ft | 112 kts | 51° |
| 2026-04-26 08:53 | 50.84934 | -0.70315 | 1133 ft | 119 kts | 52° |
| 2026-04-26 08:53 | 50.85479 | -0.69335 | 1158 ft | 118 kts | 52° |
| 2026-04-26 08:53 | 50.86167 | -0.68682 | 1201 ft | 121 kts | 18° |
| 2026-04-26 08:53 | 50.87019 | -0.68899 | 1209 ft | 134 kts | 333° |
| 2026-04-26 08:54 | 50.87573 | -0.70115 | 1246 ft | 139 kts | 290° |
| 2026-04-26 08:54 | 50.87849 | -0.71560 | 1314 ft | 135 kts | 292° |
| 2026-04-26 08:54 | 50.88374 | -0.72741 | 1345 ft | 134 kts | 319° |
| 2026-04-26 08:54 | 50.89095 | -0.73581 | 1259 ft | 114 kts | 333° |
| 2026-04-26 08:55 | 50.89715 | -0.74136 | 1125 ft | 96 kts | 335° |
| 2026-04-26 08:55 | 50.90135 | -0.74799 | 1062 ft | 84 kts | 283° |
| 2026-04-26 08:55 | 50.90021 | -0.75662 | 979 ft | 80 kts | 236° |
| 2026-04-26 08:55 | 50.89723 | -0.76416 | 948 ft | 81 kts | 232° |
| 2026-04-26 08:56 | 50.89421 | -0.77156 | 958 ft | 79 kts | 232° |
| 2026-04-26 08:56 | 50.89087 | -0.77875 | 1000 ft | 83 kts | 222° |
| 2026-04-26 08:56 | 50.88628 | -0.78412 | 1038 ft | 77 kts | 190° |
| 2026-04-26 08:56 | 50.88100 | -0.78366 | 996 ft | 77 kts | 160° |
| 2026-04-26 08:57 | 50.87606 | -0.78103 | 886 ft | 72 kts | 146° |
| 2026-04-26 08:57 | 50.87204 | -0.77659 | 692 ft | 70 kts | 138° |
| 2026-04-26 08:57 | 50.86823 | -0.77211 | 492 ft | 65 kts | 130° |
| 2026-04-26 08:57 | 50.86534 | -0.76690 | 234 ft | 65 kts | 141° |
| 2026-04-26 08:58 | 50.86180 | -0.76275 | 106 ft | 53 kts | 130° |
| 2026-04-26 08:58 | 50.85997 | -0.75999 | 103 ft | 27 kts | 140° |
| 2026-04-26 08:58 | 50.85877 | -0.75852 | 102 ft | 22 kts | 142° |
| 2026-04-26 08:58 | 50.85724 | -0.75660 | 102 ft | 28 kts | 140° |
| 2026-04-26 08:59 | 50.85625 | -0.75517 | 102 ft | 13 kts | 139° |
| 2026-04-26 08:59 | 50.85569 | -0.75438 | 103 ft | 12 kts | 134° |
| 2026-04-26 08:59 | 50.85543 | -0.75284 | 104 ft | 14 kts | 18° |
| 2026-04-26 08:59 | 50.85615 | -0.75369 | 104 ft | 14 kts | 323° |
| 2026-04-26 09:00 | 50.85689 | -0.75456 | 104 ft | 10 kts | 321° |
| 2026-04-26 09:00 | 50.85746 | -0.75511 | 104 ft | 3 kts | 354° |
| 2026-04-26 09:00 | 50.85773 | -0.75514 | 104 ft | 3 kts | 352° |
| 2026-04-26 09:00 | 50.85778 | -0.75515 | 104 ft | 1 kts | 354° |
| 2026-04-26 09:01 | 50.85781 | -0.75516 | 104 ft | 0 kts | 353° |
| 2026-04-26 09:01 | 50.85792 | -0.75518 | 102 ft | 0 kts | 355° |